Time;durP1;ratioP1;P1;durP2;ratioP2;P2;SDS_P1;SDS_P2;PMS_P1;PMS_P2;Temp;Humidity;BMP_temperature;BMP_pressure;BME280_temperature;BME280_humidity;BME280_pressure;Samples;Min_cycle;Max_cycle;Signal;HPM_P1;HPM_P2
2022/04/19 00:00:37;;;;;;;6.83;5.80;;;;;;;6.09;nan;98315.63;4993354;28;20038;-64
2022/04/19 00:03:06;;;;;;;6.43;5.20;;;;;;;6.09;nan;98302.03;4993926;28;20033;-64
2022/04/19 00:05:36;;;;;;;6.20;5.50;;;;;;;6.04;nan;98296.97;4991234;28;20453;-64
2022/04/19 00:08:06;;;;;;;6.20;5.27;;;;;;;6.05;nan;98292.75;4991198;28;20026;-64
2022/04/19 00:10:32;;;;;;;6.70;4.83;;;;;;;6.09;nan;98307.97;4994348;28;20385;-64
2022/04/19 00:12:59;;;;;;;6.10;5.20;;;;;;;6.20;nan;98306.19;4994596;28;20073;-65
2022/04/19 00:15:29;;;;;;;6.10;5.50;;;;;;;6.15;nan;98297.78;4991504;28;20034;-64
2022/04/19 00:17:55;;;;;;;6.53;5.27;;;;;;;6.10;nan;98298.66;4990117;28;20072;-64
2022/04/19 00:20:21;;;;;;;7.23;5.80;;;;;;;6.08;nan;98296.09;4993138;28;20039;-64
2022/04/19 00:22:49;;;;;;;6.63;5.47;;;;;;;5.94;nan;98285.19;4995023;28;20100;-64
2022/04/19 00:25:15;;;;;;;6.13;5.50;;;;;;;5.94;nan;98280.91;4990107;28;20058;-65
2022/04/19 00:27:41;;;;;;;6.20;5.50;;;;;;;5.97;nan;98295.34;4991635;28;20052;-63
2022/04/19 00:30:07;;;;;;;5.43;4.90;;;;;;;6.16;nan;98294.34;4994671;28;20400;-62
2022/04/19 00:32:33;;;;;;;6.87;5.70;;;;;;;6.15;nan;98276.56;4992893;28;20026;-63
2022/04/19 00:34:59;;;;;;;7.57;5.70;;;;;;;6.07;nan;98280.88;4991173;28;20400;-64
2022/04/19 00:37:25;;;;;;;6.97;5.27;;;;;;;6.15;nan;98284.19;4992386;28;20391;-65
2022/04/19 00:39:51;;;;;;;7.30;5.37;;;;;;;6.10;nan;98288.47;4993261;28;20324;-63
2022/04/19 00:42:17;;;;;;;6.87;5.10;;;;;;;6.11;nan;98290.97;4992516;28;20499;-64
2022/04/19 00:44:43;;;;;;;7.17;6.03;;;;;;;6.03;nan;98287.66;4988733;28;20042;-65
2022/04/19 00:47:10;;;;;;;6.33;5.73;;;;;;;5.92;nan;98285.19;4991974;28;20034;-63
2022/04/19 00:49:38;;;;;;;6.33;5.63;;;;;;;5.89;nan;98294.53;4993267;28;20042;-62
2022/04/19 00:52:06;;;;;;;9.70;6.37;;;;;;;5.93;nan;98286.03;4992402;28;20069;-63
2022/04/19 00:54:32;;;;;;;7.00;5.83;;;;;;;5.79;nan;98275.06;4989705;28;20673;-63
2022/04/19 00:56:58;;;;;;;7.27;5.37;;;;;;;6.00;nan;98282.59;4992866;28;20030;-63
2022/04/19 00:59:24;;;;;;;6.27;4.97;;;;;;;5.98;nan;98279.22;4993359;28;20058;-64
2022/04/19 01:01:50;;;;;;;7.00;5.97;;;;;;;5.98;nan;98285.13;4990992;28;20034;-63
2022/04/19 01:04:16;;;;;;;5.30;4.63;;;;;;;6.05;nan;98280.88;4988066;28;20096;-64
2022/04/19 01:06:42;;;;;;;8.60;4.27;;;;;;;6.37;nan;98276.38;4992669;28;20026;-64
2022/04/19 01:09:07;;;;;;;5.40;4.10;;;;;;;6.38;nan;98269.59;4991809;28;20088;-64
2022/04/19 01:14:19;;;;;;;5.70;4.57;;;;;;;6.82;nan;98280.22;4989917;28;20088;-64
2022/04/19 01:16:45;;;;;;;5.17;4.63;;;;;;;6.78;nan;98270.09;4992989;28;20038;-64
2022/04/19 01:19:15;;;;;;;4.97;3.77;;;;;;;6.97;nan;98271.56;4991956;28;20034;-64
2022/04/19 01:21:57;;;;;;;4.20;3.70;;;;;;;6.89;nan;98253.81;4988915;28;20117;-64
2022/04/19 01:24:23;;;;;;;5.33;4.40;;;;;;;6.91;nan;98240.22;4982611;28;20054;-64
2022/04/19 01:26:52;;;;;;;5.17;3.90;;;;;;;6.99;nan;98251.19;4993473;28;20371;-63
2022/04/19 01:29:18;;;;;;;5.50;3.83;;;;;;;6.94;nan;98242.72;4992803;28;20119;-62
2022/04/19 01:31:45;;;;;;;8.80;4.27;;;;;;;6.81;nan;98231.81;4989690;28;20435;-62
2022/04/19 01:34:11;;;;;;;5.87;3.77;;;;;;;6.81;nan;98225.03;4991505;28;20038;-63
2022/04/19 01:36:37;;;;;;;5.67;4.13;;;;;;;6.88;nan;98231.75;4993826;28;20507;-63
2022/04/19 01:39:08;;;;;;;4.47;4.07;;;;;;;6.91;nan;98223.25;4990464;28;20134;-63
2022/04/19 01:41:35;;;;;;;4.30;3.90;;;;;;;6.91;nan;98230.03;4991589;28;20031;-63
2022/04/19 01:44:01;;;;;;;5.50;4.23;;;;;;;6.84;nan;98225.00;4990508;28;20034;-63
2022/04/19 01:46:27;;;;;;;5.20;4.07;;;;;;;6.76;nan;98221.69;4993591;28;20525;-63
2022/04/19 01:48:56;;;;;;;4.73;4.03;;;;;;;6.75;nan;98227.63;4991695;28;20030;-62
2022/04/19 01:51:22;;;;;;;4.70;4.20;;;;;;;6.60;nan;98199.78;4989156;28;20038;-63
2022/04/19 01:53:49;;;;;;;3.93;3.53;;;;;;;6.81;nan;98232.69;4991817;28;20096;-62
2022/04/19 01:56:14;;;;;;;3.57;3.27;;;;;;;6.85;nan;98210.56;4993037;28;20022;-62
2022/04/19 01:58:40;;;;;;;3.20;3.00;;;;;;;6.93;nan;98224.03;4989115;28;20515;-62
2022/04/19 02:01:05;;;;;;;4.60;3.20;;;;;;;7.03;nan;98230.75;4991490;28;20471;-62
2022/04/19 02:03:31;;;;;;;4.57;3.57;;;;;;;7.15;nan;98222.94;4993601;28;20026;-62
2022/04/19 02:05:56;;;;;;;3.30;2.80;;;;;;;7.09;nan;98235.75;4993471;28;20510;-63
2022/04/19 02:08:22;;;;;;;4.23;3.80;;;;;;;6.97;nan;98230.78;4989038;28;20029;-62
2022/04/19 02:10:48;;;;;;;5.07;4.20;;;;;;;6.77;nan;98227.63;4989766;28;20085;-62
2022/04/19 02:13:13;;;;;;;4.37;3.97;;;;;;;6.66;nan;98227.72;4990913;28;20030;-62
2022/04/19 02:15:39;;;;;;;4.97;4.30;;;;;;;6.62;nan;98236.25;4991479;28;20034;-63
2022/04/19 02:18:05;;;;;;;6.20;4.50;;;;;;;6.53;nan;98228.72;4989257;28;20038;-62
2022/04/19 02:20:31;;;;;;;5.03;4.13;;;;;;;6.40;nan;98209.31;4989614;28;20041;-62
2022/04/19 02:22:56;;;;;;;4.70;4.30;;;;;;;6.58;nan;98232.03;4992187;28;20121;-62
2022/04/19 02:25:24;;;;;;;6.63;5.10;;;;;;;6.51;nan;98215.16;4990040;28;20594;-63
2022/04/19 02:27:50;;;;;;;7.83;5.00;;;;;;;6.59;nan;98221.00;4989146;28;20061;-65
2022/04/19 02:30:17;;;;;;;5.57;4.93;;;;;;;6.48;nan;98220.28;4991581;28;20145;-61
2022/04/19 02:32:48;;;;;;;5.20;4.70;;;;;;;6.51;nan;98227.88;4993356;28;20061;-63
2022/04/19 02:35:18;;;;;;;6.93;4.60;;;;;;;6.41;nan;98222.03;4989625;28;20120;-64
2022/04/19 02:37:54;;;;;;;5.90;5.27;;;;;;;6.39;nan;98221.22;4990009;28;20145;-63
2022/04/19 02:40:22;;;;;;;8.00;5.60;;;;;;;6.36;nan;98228.88;4991202;28;20418;-62
2022/04/19 02:42:48;;;;;;;7.33;5.30;;;;;;;6.24;nan;98216.22;4992949;28;20106;-63
2022/04/19 02:45:14;;;;;;;5.77;5.17;;;;;;;6.15;nan;98216.34;4988645;28;20374;-62
2022/04/19 02:47:41;;;;;;;6.63;5.47;;;;;;;6.11;nan;98206.19;4988986;28;20030;-62
2022/04/19 02:50:07;;;;;;;7.17;4.87;;;;;;;6.12;nan;98212.94;4991515;28;20535;-65
2022/04/19 02:52:33;;;;;;;8.07;6.40;;;;;;;6.25;nan;98205.19;4991711;28;20041;-63
2022/04/19 02:54:58;;;;;;;4.73;4.30;;;;;;;6.31;nan;98205.16;4988426;28;20716;-63
2022/04/19 02:57:23;;;;;;;5.27;4.73;;;;;;;6.33;nan;98205.97;4989002;28;20170;-63
2022/04/19 02:59:49;;;;;;;5.50;4.07;;;;;;;6.36;nan;98200.88;4990309;28;20034;-63
2022/04/19 03:02:14;;;;;;;6.27;4.90;;;;;;;6.34;nan;98196.63;4992122;28;20034;-63
2022/04/19 03:04:41;;;;;;;5.10;4.60;;;;;;;6.45;nan;98214.38;4989175;28;20109;-64
2022/04/19 03:07:06;;;;;;;5.23;4.73;;;;;;;6.39;nan;98210.19;4988384;28;20416;-63
2022/04/19 03:09:32;;;;;;;4.93;3.93;;;;;;;6.40;nan;98207.63;4991052;28;20041;-63
2022/04/19 03:11:58;;;;;;;6.10;4.93;;;;;;;6.37;nan;98211.88;4992580;28;20846;-63
2022/04/19 03:14:25;;;;;;;6.97;5.33;;;;;;;6.27;nan;98203.50;4988697;28;20105;-63
2022/04/19 03:16:51;;;;;;;6.13;4.93;;;;;;;6.32;nan;98206.81;4988956;28;20152;-62
2022/04/19 03:19:17;;;;;;;6.00;5.40;;;;;;;6.30;nan;98202.63;4991932;28;20042;-62
2022/04/19 03:21:42;;;;;;;5.83;5.03;;;;;;;6.19;nan;98194.25;4991842;28;20042;-63
2022/04/19 03:29:36;;;;;;;6.20;5.07;;;;;;;6.10;nan;98179.91;4990676;28;20044;-63
2022/04/19 03:32:02;;;;;;;6.57;4.60;;;;;;;6.06;nan;98167.22;4989773;28;20387;-64
2022/04/19 03:34:27;;;;;;;5.77;5.00;;;;;;;6.08;nan;98171.41;4988697;28;20382;-62
2022/04/19 03:36:53;;;;;;;6.13;4.87;;;;;;;6.08;nan;98162.94;4987973;28;20446;-62
2022/04/19 03:39:18;;;;;;;7.30;4.60;;;;;;;6.18;nan;98185.75;4990148;28;20581;-62
2022/04/19 03:41:44;;;;;;;5.20;4.70;;;;;;;6.08;nan;98161.25;4988851;28;20483;-62
2022/04/19 03:44:11;;;;;;;7.07;4.97;;;;;;;5.99;nan;98153.69;4987865;28;20030;-62
2022/04/19 03:47:07;;;;;;;6.50;5.13;;;;;;;6.10;nan;98187.53;4990273;28;20026;-62
2022/04/19 03:49:29;;;;;;;6.20;5.07;;;;;;;5.92;nan;98168.16;4990568;28;20046;-63
2022/04/19 03:51:54;;;;;;;6.50;4.97;;;;;;;6.04;nan;98181.63;4991775;28;20084;-62
2022/04/19 03:54:19;;;;;;;8.53;5.90;;;;;;;5.99;nan;98174.03;4992530;28;20034;-63
2022/04/19 03:56:45;;;;;;;6.10;5.33;;;;;;;5.92;nan;98169.88;4996361;28;20037;-63
2022/04/19 03:59:10;;;;;;;6.03;4.63;;;;;;;5.89;nan;98178.38;4994386;28;20477;-62
2022/04/19 04:01:39;;;;;;;6.07;4.97;;;;;;;5.91;nan;98170.72;4992290;28;20473;-62
2022/04/19 04:04:07;;;;;;;6.57;5.50;;;;;;;5.85;nan;98170.75;4993375;28;20053;-63
2022/04/19 04:06:36;;;;;;;7.37;5.70;;;;;;;5.84;nan;98171.59;4995129;28;20127;-63
2022/04/19 04:09:02;;;;;;;6.80;5.43;;;;;;;5.77;nan;98168.22;4994355;28;20068;-62
2022/04/19 04:11:27;;;;;;;6.33;5.67;;;;;;;5.79;nan;98175.88;4990998;28;20038;-62
2022/04/19 04:13:53;;;;;;;8.23;5.20;;;;;;;5.84;nan;98174.97;4993068;28;20502;-63
2022/04/19 04:16:18;;;;;;;5.67;5.03;;;;;;;5.83;nan;98169.91;4996432;28;20042;-62
2022/04/19 04:18:44;;;;;;;5.90;5.20;;;;;;;5.88;nan;98178.38;4993418;28;20553;-62
2022/04/19 04:21:09;;;;;;;6.00;5.37;;;;;;;5.87;nan;98179.22;4991623;28;20484;-63
2022/04/19 04:23:34;;;;;;;6.27;5.60;;;;;;;5.89;nan;98182.63;4993251;28;20026;-61
2022/04/19 04:26:00;;;;;;;6.40;5.27;;;;;;;5.88;nan;98183.47;4994956;28;20033;-62
2022/04/19 04:28:26;;;;;;;7.57;5.73;;;;;;;5.73;nan;98191.19;4993853;28;20066;-63
2022/04/19 04:30:51;;;;;;;8.50;5.23;;;;;;;5.83;nan;98188.56;4991754;28;20528;-65
2022/04/19 04:33:17;;;;;;;7.33;5.53;;;;;;;5.80;nan;98193.66;4995816;28;20124;-62
2022/04/19 04:35:42;;;;;;;8.80;6.80;;;;;;;5.73;nan;98192.00;4998240;28;20038;-62
2022/04/19 04:38:08;;;;;;;6.90;6.20;;;;;;;5.69;nan;98192.03;4994617;28;20030;-62
2022/04/19 04:40:33;;;;;;;8.20;6.10;;;;;;;5.65;nan;98196.28;4995579;28;20065;-62
2022/04/19 04:42:58;;;;;;;5.93;5.33;;;;;;;5.58;nan;98183.63;5000350;28;20046;-62
2022/04/19 04:45:25;;;;;;;8.17;6.37;;;;;;;5.66;nan;98203.06;4999910;28;20558;-63
2022/04/19 04:50:35;;;;;;;7.50;6.50;;;;;;;5.70;nan;98194.56;4994445;28;20097;-62
2022/04/19 04:53:00;;;;;;;5.83;5.23;;;;;;;5.74;nan;98195.38;4995737;28;20359;-62
2022/04/19 04:55:26;;;;;;;6.47;5.00;;;;;;;5.82;nan;98193.63;4993884;28;20129;-62
2022/04/19 04:57:56;;;;;;;7.43;6.03;;;;;;;5.76;nan;98188.63;4991704;28;20034;-64
2022/04/19 05:00:22;;;;;;;6.80;6.10;;;;;;;5.87;nan;98202.13;4993738;28;20030;-61
2022/04/19 05:02:47;;;;;;;7.23;6.33;;;;;;;5.75;nan;98197.09;4992093;28;20519;-60
2022/04/19 05:05:13;;;;;;;7.50;5.87;;;;;;;5.66;nan;98185.28;4993900;28;20483;-59
2022/04/19 05:07:39;;;;;;;6.67;6.07;;;;;;;5.65;nan;98181.03;4991363;28;20033;-63
2022/04/19 05:10:05;;;;;;;7.17;5.97;;;;;;;5.70;nan;98198.81;4994167;28;20436;-53
2022/04/19 05:12:31;;;;;;;8.07;6.70;;;;;;;5.74;nan;98187.75;4995874;28;20380;-59
2022/04/19 05:14:57;;;;;;;7.10;5.73;;;;;;;5.80;nan;98191.13;4991634;28;20034;-62
2022/04/19 05:17:23;;;;;;;8.83;6.40;;;;;;;5.77;nan;98193.66;4990698;28;20092;-59
2022/04/19 05:19:48;;;;;;;6.80;6.20;;;;;;;5.72;nan;98185.25;4991412;28;20391;-59
2022/04/19 05:22:14;;;;;;;7.17;6.40;;;;;;;5.67;nan;98175.94;4993541;28;20042;-59
2022/04/19 05:24:39;;;;;;;7.30;5.93;;;;;;;5.79;nan;98194.50;4989738;28;20066;-58
2022/04/19 05:27:05;;;;;;;7.83;6.90;;;;;;;5.88;nan;98196.19;4989182;28;20535;-59
2022/04/19 05:29:30;;;;;;;9.00;7.20;;;;;;;5.94;nan;98193.59;4994517;28;20536;-61
2022/04/19 05:31:55;;;;;;;7.97;7.17;;;;;;;6.04;nan;98202.84;4993486;28;20132;-60
2022/04/19 05:34:21;;;;;;;7.37;6.50;;;;;;;6.10;nan;98204.50;4989649;28;20106;-60
2022/04/19 05:36:47;;;;;;;7.10;6.40;;;;;;;6.18;nan;98202.72;4989908;28;20157;-60
2022/04/19 05:39:12;;;;;;;7.07;6.37;;;;;;;6.23;nan;98204.38;4992459;28;20034;-60
2022/04/19 05:41:40;;;;;;;10.30;7.37;;;;;;;6.16;nan;98191.69;4994179;28;20028;-60
2022/04/19 05:44:06;;;;;;;6.73;6.13;;;;;;;6.27;nan;98208.59;4991804;28;20569;-60
2022/04/19 05:46:32;;;;;;;7.67;6.07;;;;;;;6.08;nan;98194.31;4991100;28;20148;-60
2022/04/19 05:48:57;;;;;;;7.47;6.77;;;;;;;6.09;nan;98190.06;4994050;28;20554;-60
2022/04/19 05:51:23;;;;;;;7.83;7.00;;;;;;;6.22;nan;98207.78;4994650;28;20053;-60
2022/04/19 05:53:48;;;;;;;7.87;6.87;;;;;;;6.07;nan;98196.91;4988946;28;20097;-60
2022/04/19 05:56:13;;;;;;;8.87;7.33;;;;;;;6.10;nan;98212.97;4990073;28;20489;-60
2022/04/19 05:58:39;;;;;;;10.30;7.00;;;;;;;5.96;nan;98199.50;4993849;28;20034;-60
2022/04/19 06:01:06;;;;;;;7.90;7.10;;;;;;;5.88;nan;98194.50;4991265;28;20570;-61
2022/04/19 06:06:15;;;;;;;9.40;6.90;;;;;;;5.94;nan;98209.69;4991399;28;20046;-61
2022/04/19 06:08:44;;;;;;;8.57;6.83;;;;;;;5.95;nan;98190.19;4993848;28;20033;-60
2022/04/19 06:11:12;;;;;;;8.47;7.50;;;;;;;5.98;nan;98200.34;4993275;28;20109;-60
2022/04/19 06:13:38;;;;;;;8.87;7.40;;;;;;;6.03;nan;98190.97;4989631;28;20080;-65
2022/04/19 06:16:04;;;;;;;10.20;7.23;;;;;;;6.13;nan;98202.75;4991415;28;20560;-60
2022/04/19 06:18:30;;;;;;;7.77;6.60;;;;;;;6.25;nan;98202.66;4993402;28;20034;-60
2022/04/19 06:20:55;;;;;;;6.87;6.17;;;;;;;6.05;nan;98179.09;4989644;28;20034;-62
2022/04/19 06:23:21;;;;;;;7.93;7.13;;;;;;;6.20;nan;98184.03;4989329;28;20472;-62
2022/04/19 06:25:46;;;;;;;8.00;6.27;;;;;;;6.22;nan;98201.84;4992326;28;20073;-61
2022/04/19 06:28:12;;;;;;;7.67;6.87;;;;;;;6.29;nan;98181.41;4991987;28;20096;-61
2022/04/19 06:30:37;;;;;;;7.40;6.47;;;;;;;6.25;nan;98197.56;4990128;28;20449;-61
2022/04/19 06:33:03;;;;;;;6.93;6.23;;;;;;;6.43;nan;98194.84;4988431;28;20064;-60
2022/04/19 06:35:29;;;;;;;6.77;6.17;;;;;;;6.61;nan;98190.44;4992162;28;20036;-61
2022/04/19 06:37:54;;;;;;;8.50;6.20;;;;;;;6.46;nan;98185.47;4993054;28;20026;-61
2022/04/19 06:40:20;;;;;;;7.53;6.83;;;;;;;6.18;nan;98157.75;4989125;28;20503;-61
2022/04/19 06:42:45;;;;;;;8.87;7.07;;;;;;;6.33;nan;98169.50;4989155;28;20042;-60
2022/04/19 06:45:11;;;;;;;10.10;7.17;;;;;;;6.62;nan;98187.03;4992951;28;20026;-62
2022/04/19 06:47:38;;;;;;;7.87;7.10;;;;;;;6.71;nan;98192.84;4993396;28;20596;-63
2022/04/19 06:50:04;;;;;;;8.60;7.30;;;;;;;6.59;nan;98179.41;4988805;28;20136;-62
2022/04/19 06:52:29;;;;;;;7.93;6.60;;;;;;;6.53;nan;98171.84;4989948;28;20042;-61
2022/04/19 06:54:55;;;;;;;7.43;5.90;;;;;;;6.81;nan;98188.50;4993188;28;20035;-61
2022/04/19 06:57:20;;;;;;;7.67;6.87;;;;;;;6.85;nan;98173.19;4991784;28;20037;-61
2022/04/19 06:59:46;;;;;;;8.67;6.73;;;;;;;6.84;nan;98185.94;4995651;28;20041;-61
2022/04/19 07:02:12;;;;;;;7.97;7.03;;;;;;;6.72;nan;98168.22;4989815;28;20162;-62
2022/04/19 07:04:39;;;;;;;8.33;6.10;;;;;;;6.84;nan;98178.28;4993301;28;20038;-61
2022/04/19 07:07:05;;;;;;;8.37;6.67;;;;;;;7.05;nan;98170.38;4990868;28;20566;-62
2022/04/19 07:09:30;;;;;;;6.77;6.13;;;;;;;6.93;nan;98168.00;4989133;28;20144;-62
2022/04/19 07:11:56;;;;;;;7.53;6.27;;;;;;;6.92;nan;98160.38;4991051;28;20030;-62
2022/04/19 07:14:21;;;;;;;6.87;6.17;;;;;;;6.83;nan;98179.97;4991446;28;20087;-62
2022/04/19 07:16:47;;;;;;;8.00;6.17;;;;;;;7.07;nan;98168.66;4989514;28;20434;-62
2022/04/19 07:19:13;;;;;;;7.53;5.77;;;;;;;7.01;nan;98166.19;4988963;28;20041;-62
2022/04/19 07:27:06;;;;;;;6.80;4.90;;;;;;;7.33;nan;98170.88;4992804;28;20041;-62
2022/04/19 07:29:32;;;;;;;7.80;5.30;;;;;;;7.38;nan;98165.72;4993207;28;20042;-62
2022/04/19 07:31:57;;;;;;;6.03;5.20;;;;;;;7.15;nan;98169.41;4995451;28;20038;-62
2022/04/19 07:34:24;;;;;;;7.33;5.47;;;;;;;7.14;nan;98164.31;4995781;28;20072;-62
2022/04/19 07:36:49;;;;;;;6.90;5.57;;;;;;;7.16;nan;98160.06;4995952;28;20091;-63
2022/04/19 07:39:15;;;;;;;6.37;5.70;;;;;;;7.08;nan;98160.16;4992928;28;20436;-65
2022/04/19 07:41:45;;;;;;;7.93;5.83;;;;;;;6.95;nan;98161.19;4995047;28;20033;-67
2022/04/19 07:44:11;;;;;;;8.13;5.57;;;;;;;6.86;nan;98146.00;4997889;28;20088;-64
2022/04/19 07:46:37;;;;;;;6.97;6.30;;;;;;;7.10;nan;98160.13;4993481;28;20030;-64
2022/04/19 07:49:03;;;;;;;7.70;6.10;;;;;;;6.82;nan;98152.84;4995117;28;20034;-64
2022/04/19 07:51:29;;;;;;;7.13;6.30;;;;;;;6.79;nan;98140.13;4996054;28;20058;-67
2022/04/19 07:53:55;;;;;;;7.17;5.43;;;;;;;6.53;nan;98142.16;4994065;28;20114;-64
2022/04/19 07:56:21;;;;;;;9.17;6.67;;;;;;;6.52;nan;98163.38;4992198;28;20609;-64
2022/04/19 07:58:47;;;;;;;7.40;6.67;;;;;;;6.82;nan;98136.72;4994546;28;20030;-64
2022/04/19 08:01:17;;;;;;;11.60;10.57;;;;;;;7.19;nan;98155.75;4993620;28;20041;-65
2022/04/19 08:03:43;;;;;;;7.37;6.63;;;;;;;7.36;nan;98142.78;4993538;28;20140;-66
2022/04/19 08:06:08;;;;;;;7.83;7.03;;;;;;;7.56;nan;98150.13;4991700;28;20192;-65
2022/04/19 08:08:35;;;;;;;7.87;7.10;;;;;;;7.63;nan;98133.91;4993514;28;20030;-64
2022/04/19 08:11:00;;;;;;;7.20;6.50;;;;;;;7.87;nan;98143.72;4993949;28;20030;-62
2022/04/19 08:13:26;;;;;;;6.50;5.90;;;;;;;8.13;nan;98135.63;4992006;28;20041;-62
2022/04/19 08:15:51;;;;;;;6.87;6.17;;;;;;;8.26;nan;98135.38;4993322;28;20538;-62
2022/04/19 08:18:18;;;;;;;5.90;5.30;;;;;;;8.49;nan;98134.97;4994742;28;20065;-63
2022/04/19 08:20:45;;;;;;;7.50;5.97;;;;;;;8.60;nan;98127.13;4996185;28;20042;-63
2022/04/19 08:23:13;;;;;;;6.37;5.77;;;;;;;8.49;nan;98117.09;4991922;28;20365;-63
2022/04/19 08:25:40;;;;;;;6.30;5.70;;;;;;;8.68;nan;98110.78;4991017;28;20062;-62
2022/04/19 08:28:06;;;;;;;8.37;6.03;;;;;;;8.63;nan;98117.69;4994499;28;20056;-63
2022/04/19 08:30:33;;;;;;;7.77;6.33;;;;;;;8.78;nan;98124.22;4995333;28;20468;-63
2022/04/19 08:32:59;;;;;;;6.30;5.70;;;;;;;8.69;nan;98116.72;4991413;28;20617;-63
2022/04/19 08:35:25;;;;;;;6.20;5.60;;;;;;;8.55;nan;98106.78;4991344;28;20076;-63
2022/04/19 08:37:51;;;;;;;7.00;5.90;;;;;;;8.47;nan;98125.66;4992062;28;20030;-62
2022/04/19 08:40:17;;;;;;;6.63;6.03;;;;;;;8.37;nan;98125.00;4994076;28;20065;-62
2022/04/19 08:42:44;;;;;;;6.53;5.80;;;;;;;8.51;nan;98114.53;4990515;28;20048;-64
2022/04/19 08:45:13;;;;;;;6.50;5.53;;;;;;;8.43;nan;98103.63;4990162;28;20038;-64
2022/04/19 08:47:44;;;;;;;6.13;5.23;;;;;;;8.49;nan;98117.09;4993710;28;20045;-65
2022/04/19 08:50:12;;;;;;;8.60;6.10;;;;;;;8.40;nan;98101.13;4992503;28;20065;-64
2022/04/19 08:52:38;;;;;;;7.97;5.83;;;;;;;8.58;nan;98119.47;4990720;28;20092;-64
2022/04/19 08:57:52;;;;;;;8.47;7.03;;;;;;;8.36;nan;98117.38;4993709;28;20383;-63
2022/04/19 09:00:22;;;;;;;8.87;7.33;;;;;;;8.16;nan;98120.25;4993491;28;20038;-64
2022/04/19 09:02:49;;;;;;;9.17;7.40;;;;;;;8.13;nan;98113.50;4990369;28;20041;-63
2022/04/19 09:05:18;;;;;;;10.13;6.47;;;;;;;8.04;nan;98113.63;4994492;28;20096;-64
2022/04/19 09:07:45;;;;;;;6.47;5.70;;;;;;;7.89;nan;98101.16;4993604;28;20049;-64
2022/04/19 09:10:14;;;;;;;7.40;6.70;;;;;;;7.78;nan;98100.47;4990836;28;20609;-64
2022/04/19 09:13:04;;;;;;;12.53;7.13;;;;;;;7.86;nan;98110.53;4991683;28;20148;-64
2022/04/19 09:15:38;;;;;;;7.57;6.27;;;;;;;8.03;nan;98109.41;4993438;28;20350;-64
2022/04/19 09:18:05;;;;;;;8.32;6.82;;;;;;;7.76;nan;98108.16;4993887;28;20448;-64
2022/04/19 09:20:31;;;;;;;8.03;7.23;;;;;;;7.42;nan;98119.75;4991566;28;20091;-64
2022/04/19 09:23:08;;;;;;;9.37;8.33;;;;;;;7.43;nan;98118.03;4992170;28;20030;-64
2022/04/19 09:25:35;;;;;;;11.27;8.03;;;;;;;7.16;nan;98114.19;4993832;28;20167;-64
2022/04/19 09:28:02;;;;;;;9.63;8.53;;;;;;;7.14;nan;98126.09;4991639;28;20037;-64
2022/04/19 09:30:34;;;;;;;10.40;9.30;;;;;;;7.11;nan;98118.50;4990221;28;20064;-63
2022/04/19 09:33:08;;;;;;;11.17;9.60;;;;;;;7.03;nan;98116.06;4991507;28;20492;-63
2022/04/19 09:35:47;;;;;;;9.80;8.80;;;;;;;6.95;nan;98132.31;4992559;28;20076;-61
2022/04/19 09:38:13;;;;;;;12.43;8.67;;;;;;;6.82;nan;98127.38;4990926;28;20034;-60
2022/04/19 09:40:43;;;;;;;10.37;9.00;;;;;;;6.23;nan;98117.84;4990131;28;20126;-61
2022/04/19 09:43:16;;;;;;;11.60;10.10;;;;;;;6.24;nan;98123.75;4991543;28;20066;-61
2022/04/19 09:45:54;;;;;;;9.87;8.87;;;;;;;6.08;nan;98112.03;5000958;28;20026;-61
2022/04/19 09:48:22;;;;;;;12.43;9.40;;;;;;;6.17;nan;98128.06;4987309;28;20030;-61
2022/04/19 09:50:53;;;;;;;13.33;10.87;;;;;;;6.26;nan;98129.69;4991016;28;20506;-60
2022/04/19 09:53:23;;;;;;;11.17;9.97;;;;;;;6.29;nan;98117.75;4993061;28;20037;-61
2022/04/19 09:55:50;;;;;;;14.67;10.77;;;;;;;6.35;nan;98127.91;4991562;28;20034;-61
2022/04/19 09:58:16;;;;;;;16.30;13.27;;;;;;;6.31;nan;98113.53;4989236;28;20034;-61
2022/04/19 10:00:44;;;;;;;17.67;12.70;;;;;;;6.46;nan;98122.69;4991399;28;20177;-61
2022/04/19 10:08:43;;;;;;;17.63;12.55;;;;;;;6.78;nan;98101.94;4988780;28;20097;-62
2022/04/19 10:11:09;;;;;;;10.23;9.23;;;;;;;6.81;nan;98117.19;4992085;28;20133;-62
2022/04/19 10:13:38;;;;;;;10.27;9.17;;;;;;;6.69;nan;98099.50;4992699;28;20038;-62
2022/04/19 10:16:08;;;;;;;12.27;10.97;;;;;;;6.71;nan;98102.88;4988857;28;20034;-62
2022/04/19 10:18:34;;;;;;;9.87;8.87;;;;;;;6.73;nan;98113.88;4988197;28;20034;-61
2022/04/19 10:21:03;;;;;;;10.63;9.60;;;;;;;6.85;nan;98116.28;4991623;28;20041;-61
2022/04/19 10:23:39;;;;;;;11.13;9.93;;;;;;;6.77;nan;98120.63;4992705;28;20037;-61
2022/04/19 10:26:22;;;;;;;9.73;8.73;;;;;;;6.70;nan;98119.03;4988029;28;20051;-60
2022/04/19 10:28:50;;;;;;;10.17;9.17;;;;;;;6.82;nan;98114.63;4988972;28;20571;-59
2022/04/19 10:31:35;;;;;;;10.07;9.07;;;;;;;6.64;nan;98103.81;4993300;28;20041;-61
2022/04/19 10:34:05;;;;;;;9.23;8.33;;;;;;;6.62;nan;98103.81;4990963;28;20173;-59
2022/04/19 10:36:34;;;;;;;9.47;8.57;;;;;;;6.66;nan;98118.19;4988203;28;20135;-60
2022/04/19 10:39:11;;;;;;;10.33;9.23;;;;;;;6.73;nan;98113.88;4992412;28;20042;-61
2022/04/19 10:41:53;;;;;;;9.33;8.37;;;;;;;6.76;nan;98119.78;4993042;28;20072;-60
2022/04/19 10:44:32;;;;;;;10.03;8.97;;;;;;;6.79;nan;98119.75;4989363;28;20037;-61
2022/04/19 10:47:12;;;;;;;10.40;9.27;;;;;;;6.65;nan;98108.03;4989235;28;20423;-60
2022/04/19 10:50:07;;;;;;;11.37;9.37;;;;;;;6.68;nan;98123.28;4979722;28;20088;-60
2022/04/19 10:52:39;;;;;;;14.97;10.27;;;;;;;6.66;nan;98118.19;4987630;28;20193;-61
2022/04/19 10:55:19;;;;;;;12.90;10.33;;;;;;;6.58;nan;98126.78;4989121;28;20030;-60
2022/04/19 11:00:48;;;;;;;11.47;9.30;;;;;;;6.60;nan;98127.63;4990373;28;20088;-60
2022/04/19 11:03:15;;;;;;;9.27;8.27;;;;;;;6.54;nan;98132.78;4993044;28;20066;-60
2022/04/19 11:05:50;;;;;;;11.33;8.20;;;;;;;6.35;nan;98110.09;4992520;28;20041;-61
2022/04/19 11:08:26;;;;;;;9.53;8.63;;;;;;;6.51;nan;98145.53;4996371;28;20045;-60
2022/04/19 11:11:06;;;;;;;12.07;9.90;;;;;;;6.29;nan;98145.78;4995174;28;20346;-60
2022/04/19 11:13:36;;;;;;;11.13;8.90;;;;;;;6.25;nan;98140.72;4992412;28;20494;-61
2022/04/19 11:16:08;;;;;;;8.80;7.60;;;;;;;6.30;nan;98144.06;4993905;28;20042;-60
2022/04/19 11:18:39;;;;;;;11.77;9.00;;;;;;;6.20;nan;98142.47;4995128;28;20501;-60
2022/04/19 11:21:13;;;;;;;8.00;7.20;;;;;;;6.17;nan;98133.16;4994835;28;20537;-60
2022/04/19 11:23:43;;;;;;;9.77;8.03;;;;;;;6.24;nan;98136.47;4992459;28;20080;-60
2022/04/19 11:26:30;;;;;;;11.10;9.30;;;;;;;6.13;nan;98153.56;4994764;28;20088;-60
2022/04/19 11:29:18;;;;;;;8.33;7.57;;;;;;;5.93;nan;98154.59;4993986;28;20037;-60
2022/04/19 11:31:43;;;;;;;8.77;7.30;;;;;;;6.06;nan;98157.88;4992897;28;20033;-60
2022/04/19 11:34:16;;;;;;;7.13;6.43;;;;;;;6.07;nan;98161.28;4991161;28;20602;-61
2022/04/19 11:36:43;;;;;;;8.47;7.77;;;;;;;6.05;nan;98163.81;4996514;28;20241;-62
2022/04/19 11:46:43;;;;;;;8.03;7.23;;;;;;;6.03;nan;98149.41;4995134;28;20496;-62
2022/04/19 11:47:59;;;;;;;9.63;8.10;;;;;;;5.86;nan;98162.22;4995129;28;20092;-62
2022/04/19 11:50:31;;;;;;;11.07;8.23;;;;;;;5.89;nan;98154.63;4992743;28;20034;-61
2022/04/19 11:52:57;;;;;;;16.03;11.90;;;;;;;5.80;nan;98159.75;4992853;28;20057;-61
2022/04/19 11:55:25;;;;;;;9.07;8.17;;;;;;;5.97;nan;98156.25;4995029;28;20026;-61
2022/04/19 11:58:05;;;;;;;7.20;6.50;;;;;;;6.11;nan;98145.94;4994223;28;20468;-61
2022/04/19 12:00:31;;;;;;;7.57;6.33;;;;;;;6.21;nan;98139.91;4991744;28;20034;-61
2022/04/19 12:02:57;;;;;;;6.53;5.93;;;;;;;6.55;nan;98148.03;4993646;28;20496;-60
2022/04/19 12:05:25;;;;;;;5.83;5.33;;;;;;;6.73;nan;98134.28;4995197;28;20452;-60
2022/04/19 12:07:52;;;;;;;6.07;5.43;;;;;;;7.00;nan;98140.75;4995234;28;20030;-58
2022/04/19 12:10:19;;;;;;;5.20;4.70;;;;;;;7.26;nan;98144.59;4994045;28;20559;-60
2022/04/19 12:12:46;;;;;;;5.07;4.63;;;;;;;7.20;nan;98142.16;4993489;28;20651;-60
2022/04/19 12:15:11;;;;;;;5.97;5.47;;;;;;;7.39;nan;98136.78;4995049;28;20048;-63
2022/04/19 12:17:44;;;;;;;5.53;5.07;;;;;;;7.75;nan;98128.59;4993104;28;20030;-61
2022/04/19 12:20:10;;;;;;;4.83;4.43;;;;;;;7.98;nan;98138.41;4990407;28;20465;-61
2022/04/19 12:22:36;;;;;;;5.30;4.90;;;;;;;7.98;nan;98123.94;4995149;28;20037;-61
2022/04/19 12:25:03;;;;;;;4.70;4.33;;;;;;;8.12;nan;98122.00;4994495;28;20050;-61
2022/04/19 12:27:32;;;;;;;5.00;4.60;;;;;;;8.14;nan;98134.75;4991699;28;20026;-61
2022/04/19 12:30:04;;;;;;;6.33;5.73;;;;;;;8.16;nan;98138.09;4989939;28;20033;-61
2022/04/19 12:32:49;;;;;;;6.10;5.53;;;;;;;7.86;nan;98136.91;4992839;28;20449;-61
2022/04/19 12:35:17;;;;;;;5.55;4.95;;;;;;;7.74;nan;98127.75;4993235;28;20077;-61
2022/04/19 12:37:43;;;;;;;4.30;4.00;;;;;;;7.75;nan;98137.09;4990483;28;20188;-62